createdAt,value
2018-03-08T00:00:03.896Z,98.21
2018-03-08T00:01:03.899Z,98.23
2018-03-08T00:02:03.859Z,98.29
2018-03-08T00:03:03.855Z,98.37
2018-03-08T00:04:03.789Z,98.42
2018-03-08T00:05:03.834Z,98.50
2018-03-08T00:06:03.832Z,98.66
2018-03-08T00:07:03.903Z,98.80
2018-03-08T00:08:03.831Z,98.94
2018-03-08T00:09:03.839Z,99.04
2018-03-08T00:10:03.908Z,99.07
2018-03-08T00:11:03.832Z,99.10
2018-03-08T00:12:03.844Z,99.21
2018-03-08T00:13:03.906Z,99.21
2018-03-08T00:14:03.900Z,99.43
2018-03-08T00:15:03.825Z,99.34
2018-03-08T00:16:03.823Z,99.23
2018-03-08T00:17:03.904Z,99.21
2018-03-08T00:18:03.851Z,99.18
2018-03-08T00:19:03.851Z,99.21
2018-03-08T00:20:03.993Z,99.18
2018-03-08T00:21:03.833Z,99.21
2018-03-08T00:22:03.905Z,99.32
2018-03-08T00:23:03.777Z,99.40
2018-03-08T00:24:03.834Z,99.43
2018-03-08T00:25:03.932Z,99.29
2018-03-08T00:26:03.911Z,99.21
2018-03-08T00:27:03.914Z,98.94
2018-03-08T00:28:04.048Z,98.85
2018-03-08T00:29:03.893Z,98.77
2018-03-08T00:30:03.949Z,98.75
2018-03-08T00:31:03.884Z,98.77
2018-03-08T00:32:03.890Z,98.72
2018-03-08T00:33:03.881Z,98.66
2018-03-08T00:34:03.916Z,98.66
2018-03-08T00:35:03.921Z,98.69
2018-03-08T00:36:03.879Z,98.88
2018-03-08T00:37:03.881Z,99.02
2018-03-08T00:38:03.922Z,99.15
2018-03-08T00:39:03.947Z,99.34
2018-03-08T00:40:03.947Z,99.48
2018-03-08T00:41:03.842Z,99.78
2018-03-08T00:42:03.824Z,99.99
2018-03-08T00:43:03.842Z,99.99
2018-03-08T00:44:03.891Z,99.99
2018-03-08T00:45:03.843Z,99.99
2018-03-08T00:46:03.940Z,99.99
2018-03-08T00:47:03.831Z,99.99
2018-03-08T00:48:03.949Z,99.99
2018-03-08T00:49:03.971Z,99.99
2018-03-08T00:50:03.847Z,99.99
2018-03-08T00:51:03.853Z,99.99
2018-03-08T00:52:03.945Z,99.99
2018-03-08T00:53:03.965Z,99.99
2018-03-08T00:54:03.892Z,99.99
2018-03-08T00:55:03.935Z,99.99
2018-03-08T00:56:03.854Z,99.99
2018-03-08T00:57:03.831Z,99.99
2018-03-08T00:58:03.935Z,99.99
2018-03-08T00:59:03.940Z,99.99
2018-03-08T01:00:03.930Z,99.99
2018-03-08T01:01:03.931Z,99.99
2018-03-08T01:02:04.012Z,99.99
2018-03-08T01:03:03.897Z,99.99
2018-03-08T01:04:03.972Z,99.99
2018-03-08T01:05:03.957Z,99.99
2018-03-08T01:06:03.936Z,99.99
2018-03-08T01:07:04.012Z,99.99
2018-03-08T01:08:03.861Z,99.99
2018-03-08T01:09:03.994Z,99.99
2018-03-08T01:10:03.916Z,99.99
2018-03-08T01:11:03.960Z,99.99
2018-03-08T01:12:03.939Z,99.99
2018-03-08T01:13:03.946Z,99.99
2018-03-08T01:14:03.941Z,99.99
2018-03-08T01:15:03.880Z,99.99
2018-03-08T01:16:03.907Z,99.99
2018-03-08T01:17:03.882Z,99.99
2018-03-08T01:18:03.944Z,99.99
2018-03-08T01:19:03.982Z,99.99
2018-03-08T01:20:03.923Z,99.99
2018-03-08T01:21:03.978Z,99.99
2018-03-08T01:22:03.855Z,99.99
2018-03-08T01:23:03.973Z,99.99
2018-03-08T01:24:03.857Z,99.99
2018-03-08T01:25:03.889Z,99.99
2018-03-08T01:26:03.950Z,99.99
2018-03-08T01:27:03.946Z,99.99
2018-03-08T01:28:03.888Z,99.99
2018-03-08T01:29:03.923Z,99.99
2018-03-08T01:30:03.924Z,99.99
2018-03-08T01:31:03.974Z,99.99
2018-03-08T01:32:12.446Z,99.99
2018-03-08T01:33:03.979Z,99.99
2018-03-08T01:34:03.994Z,99.99
2018-03-08T01:35:03.927Z,99.99
2018-03-08T01:36:03.983Z,99.99
2018-03-08T01:37:03.874Z,99.99
2018-03-08T01:38:03.924Z,99.99
2018-03-08T01:39:03.876Z,99.99
2018-03-08T01:40:03.919Z,99.99
2018-03-08T01:41:03.942Z,99.99
2018-03-08T01:42:03.878Z,99.99
2018-03-08T01:43:03.944Z,99.99
2018-03-08T01:44:03.936Z,99.99
2018-03-08T01:45:03.901Z,99.99
2018-03-08T01:46:03.936Z,99.99
2018-03-08T01:47:04.019Z,99.99
2018-03-08T01:48:04.001Z,99.99
2018-03-08T01:49:03.960Z,99.99
2018-03-08T01:50:03.974Z,99.99
2018-03-08T01:51:03.887Z,99.99
2018-03-08T01:52:03.946Z,99.99
2018-03-08T01:53:03.885Z,99.99
2018-03-08T01:54:03.881Z,99.99
2018-03-08T01:55:03.958Z,99.99
2018-03-08T01:56:03.881Z,99.99
2018-03-08T01:57:03.874Z,99.99
2018-03-08T01:58:03.917Z,99.99
2018-03-08T01:59:03.866Z,99.99
2018-03-08T02:00:03.964Z,99.78
2018-03-08T02:01:03.874Z,98.85
2018-03-08T02:02:03.873Z,97.96
2018-03-08T02:03:03.912Z,97.15
2018-03-08T02:04:03.947Z,96.69
2018-03-08T02:05:03.961Z,96.20
2018-03-08T02:06:03.863Z,95.94
2018-03-08T02:07:03.926Z,95.72
2018-03-08T02:08:03.951Z,95.75
2018-03-08T02:09:03.836Z,95.45
2018-03-08T02:10:03.966Z,95.28
2018-03-08T02:11:03.914Z,95.01
2018-03-08T02:12:03.964Z,95.04
2018-03-08T02:13:03.955Z,94.99
2018-03-08T02:14:03.873Z,94.91
2018-03-08T02:15:03.979Z,94.88
2018-03-08T02:16:03.912Z,94.88
2018-03-08T02:17:03.983Z,94.96
2018-03-08T02:18:03.913Z,95.01
2018-03-08T02:19:03.984Z,94.99
2018-03-08T02:20:03.948Z,95.26
2018-03-08T02:21:03.988Z,95.28
2018-03-08T02:22:03.983Z,95.28
2018-03-08T02:23:04.016Z,95.12
2018-03-08T02:24:03.919Z,95.07
2018-03-08T02:25:03.902Z,94.69
2018-03-08T02:26:03.887Z,94.59
2018-03-08T02:27:03.943Z,94.48
2018-03-08T02:28:03.883Z,94.48
2018-03-08T02:29:03.989Z,94.67
2018-03-08T02:30:04.021Z,94.75
2018-03-08T02:31:03.962Z,94.53
2018-03-08T02:32:03.908Z,94.50
2018-03-08T02:33:04.022Z,94.64
2018-03-08T02:34:03.953Z,94.59
2018-03-08T02:35:04.018Z,94.37
2018-03-08T02:36:03.997Z,94.29
2018-03-08T02:37:04.006Z,93.99
2018-03-08T02:38:03.930Z,93.89
2018-03-08T02:39:03.997Z,94.02
2018-03-08T02:40:04.006Z,94.23
2018-03-08T02:41:04.001Z,94.21
2018-03-08T02:42:03.959Z,94.10
2018-03-08T02:43:03.999Z,94.10
2018-03-08T02:44:03.896Z,94.29
2018-03-08T02:45:04.000Z,94.53
2018-03-08T02:46:04.001Z,94.69
2018-03-08T02:47:04.007Z,94.88
2018-03-08T02:48:04.003Z,95.26
2018-03-08T02:49:03.931Z,95.28
2018-03-08T02:50:04.005Z,95.31
2018-03-08T02:51:04.014Z,95.18
2018-03-08T02:52:04.003Z,95.07
2018-03-08T02:53:04.007Z,95.12
2018-03-08T02:54:03.933Z,94.99
2018-03-08T02:55:04.011Z,95.01
2018-03-08T02:56:04.012Z,95.07
2018-03-08T02:57:04.017Z,95.31
2018-03-08T02:58:04.013Z,95.47
2018-03-08T02:59:04.009Z,95.58
2018-03-08T03:00:03.905Z,95.53
2018-03-08T03:01:04.010Z,95.45
2018-03-08T03:02:03.941Z,95.47
2018-03-08T03:03:03.938Z,95.47
2018-03-08T03:04:03.947Z,95.45
2018-03-08T03:05:03.942Z,95.31
2018-03-08T03:06:04.018Z,95.47
2018-03-08T03:07:03.975Z,95.61
2018-03-08T03:08:03.941Z,95.75
2018-03-08T03:09:04.017Z,95.88
2018-03-08T03:10:03.947Z,95.98
2018-03-08T03:11:03.949Z,96.02
2018-03-08T03:12:04.022Z,96.02
2018-03-08T03:13:04.034Z,96.09
2018-03-08T03:14:03.948Z,96.17
2018-03-08T03:15:03.919Z,96.13
2018-03-08T03:16:03.951Z,96.17
2018-03-08T03:17:03.917Z,96.07
2018-03-08T03:18:04.045Z,96.13
2018-03-08T03:19:04.016Z,96.13
2018-03-08T03:20:04.051Z,95.77
2018-03-08T03:21:04.021Z,95.69
2018-03-08T03:22:04.044Z,95.66
2018-03-08T03:23:04.017Z,95.77
2018-03-08T03:24:03.983Z,95.88
2018-03-08T03:25:03.952Z,95.85
2018-03-08T03:26:03.952Z,95.85
2018-03-08T03:27:04.026Z,95.94
2018-03-08T03:28:04.029Z,96.04
2018-03-08T03:29:04.030Z,95.85
2018-03-08T03:30:03.957Z,95.88
2018-03-08T03:31:04.030Z,96.02
2018-03-08T03:32:03.954Z,96.09
2018-03-08T03:33:04.048Z,96.15
2018-03-08T03:34:03.956Z,96.15
2018-03-08T03:35:03.931Z,96.15
2018-03-08T03:36:03.901Z,96.15
2018-03-08T03:37:03.945Z,96.07
2018-03-08T03:38:04.020Z,95.85
2018-03-08T03:39:04.019Z,95.75
2018-03-08T03:40:04.029Z,95.66
2018-03-08T03:41:03.956Z,95.75
2018-03-08T03:42:04.020Z,95.88
2018-03-08T03:43:03.962Z,95.96
2018-03-08T03:44:04.018Z,96.13
2018-03-08T03:45:03.978Z,96.31
2018-03-08T03:46:03.932Z,96.53
2018-03-08T03:47:04.007Z,96.69
2018-03-08T03:48:04.068Z,96.74
2018-03-08T03:49:03.936Z,96.83
2018-03-08T03:50:04.057Z,96.88
2018-03-08T03:51:03.994Z,96.77
2018-03-08T03:52:04.039Z,96.50
2018-03-08T03:53:04.031Z,96.45
2018-03-08T03:54:04.075Z,96.28
2018-03-08T03:55:04.045Z,96.09
2018-03-08T03:56:03.993Z,96.13
2018-03-08T03:57:04.043Z,96.23
2018-03-08T03:58:03.975Z,96.31
2018-03-08T03:59:03.972Z,96.50
2018-03-08T04:00:04.046Z,96.69
2018-03-08T04:01:04.046Z,96.83
2018-03-08T04:02:04.034Z,96.91
2018-03-08T04:03:03.973Z,97.04
2018-03-08T04:04:04.055Z,97.15
2018-03-08T04:05:04.018Z,97.18
2018-03-08T04:06:03.946Z,97.18
2018-03-08T04:07:04.010Z,97.21
2018-03-08T04:08:03.932Z,97.31
2018-03-08T04:09:03.949Z,97.21
2018-03-08T04:10:03.986Z,97.10
2018-03-08T04:11:04.084Z,96.96
2018-03-08T04:12:04.074Z,96.91
2018-03-08T04:13:04.047Z,96.74
2018-03-08T04:14:04.081Z,96.45
2018-03-08T04:15:03.983Z,96.28
2018-03-08T04:16:03.926Z,96.28
2018-03-08T04:17:03.945Z,96.34
2018-03-08T04:18:03.954Z,96.26
2018-03-08T04:19:03.958Z,96.26
2018-03-08T04:20:03.986Z,96.28
2018-03-08T04:21:03.920Z,96.39
2018-03-08T04:22:04.037Z,96.39
2018-03-08T04:23:03.956Z,96.42
2018-03-08T04:24:04.042Z,96.36
2018-03-08T04:25:04.026Z,96.45
2018-03-08T04:26:04.032Z,96.53
2018-03-08T04:27:04.082Z,96.58
2018-03-08T04:28:04.039Z,96.53
2018-03-08T04:29:04.057Z,96.42
2018-03-08T04:30:04.084Z,96.45
2018-03-08T04:31:04.096Z,96.50
2018-03-08T04:32:04.039Z,96.45
2018-03-08T04:33:03.986Z,96.34
2018-03-08T04:34:03.978Z,96.42
2018-03-08T04:35:04.065Z,96.28
2018-03-08T04:36:04.030Z,96.15
2018-03-08T04:37:04.070Z,96.02
2018-03-08T04:38:03.996Z,96.07
2018-03-08T04:39:04.074Z,96.13
2018-03-08T04:40:04.070Z,96.04
2018-03-08T04:41:04.074Z,96.02
2018-03-08T04:42:04.072Z,95.88
2018-03-08T04:43:04.003Z,95.91
2018-03-08T04:44:04.000Z,95.98
2018-03-08T04:45:04.077Z,96.02
2018-03-08T04:46:04.073Z,96.02
2018-03-08T04:47:04.079Z,95.91
2018-03-08T04:48:04.076Z,95.91
2018-03-08T04:49:04.001Z,95.83
2018-03-08T04:50:04.077Z,95.61
2018-03-08T04:51:04.007Z,95.42
2018-03-08T04:52:04.005Z,95.34
2018-03-08T04:53:04.002Z,95.26
2018-03-08T04:54:04.007Z,94.99
2018-03-08T04:55:04.005Z,94.45
2018-03-08T04:56:03.962Z,94.29
2018-03-08T04:57:04.019Z,94.21
2018-03-08T04:58:04.079Z,94.04
2018-03-08T04:59:04.011Z,93.94
2018-03-08T05:00:04.081Z,93.89
2018-03-08T05:01:04.083Z,93.85
2018-03-08T05:02:04.009Z,93.89
2018-03-08T05:03:04.087Z,93.89
2018-03-08T05:04:04.086Z,93.72
2018-03-08T05:05:04.056Z,93.56
2018-03-08T05:06:04.048Z,93.40
2018-03-08T05:07:04.116Z,93.35
2018-03-08T05:08:04.108Z,93.37
2018-03-08T05:09:04.117Z,93.48
2018-03-08T05:10:04.121Z,93.62
2018-03-08T05:11:04.046Z,93.78
2018-03-08T05:12:04.093Z,93.89
2018-03-08T05:13:04.081Z,94.10
2018-03-08T05:14:04.091Z,94.26
2018-03-08T05:15:03.989Z,94.31
2018-03-08T05:16:04.094Z,94.56
2018-03-08T05:17:04.097Z,94.69
2018-03-08T05:18:04.018Z,94.72
2018-03-08T05:19:04.021Z,94.80
2018-03-08T05:20:04.022Z,94.80
2018-03-08T05:21:04.096Z,94.75
2018-03-08T05:22:04.025Z,94.77
2018-03-08T05:23:04.095Z,94.37
2018-03-08T05:24:04.025Z,94.15
2018-03-08T05:25:04.127Z,94.15
2018-03-08T05:26:03.999Z,94.10
2018-03-08T05:27:04.094Z,94.04
2018-03-08T05:28:04.156Z,94.12
2018-03-08T05:29:04.092Z,94.21
2018-03-08T05:30:04.097Z,94.23
2018-03-08T05:31:04.091Z,94.56
2018-03-08T05:32:04.035Z,94.34
2018-03-08T05:33:04.001Z,94.21
2018-03-08T05:34:04.038Z,94.21
2018-03-08T05:35:04.017Z,94.12
2018-03-08T05:36:04.005Z,94.10
2018-03-08T05:37:04.022Z,94.04
2018-03-08T05:38:04.016Z,94.10
2018-03-08T05:39:04.039Z,94.45
2018-03-08T05:40:04.177Z,94.64
2018-03-08T05:41:04.053Z,94.69
2018-03-08T05:42:04.026Z,94.83
2018-03-08T05:43:04.098Z,94.77
2018-03-08T05:44:04.098Z,94.83
2018-03-08T05:45:04.146Z,94.91
2018-03-08T05:46:04.010Z,94.91
2018-03-08T05:47:04.034Z,94.96
2018-03-08T05:48:04.085Z,95.07
2018-03-08T05:49:04.086Z,95.20
2018-03-08T05:50:04.072Z,95.26
2018-03-08T05:51:04.087Z,95.45
2018-03-08T05:52:04.028Z,95.98
2018-03-08T05:53:04.128Z,96.36
2018-03-08T05:54:04.071Z,96.50
2018-03-08T05:55:03.991Z,96.45
2018-03-08T05:56:04.006Z,96.39
2018-03-08T05:57:04.099Z,96.36
2018-03-08T05:58:03.974Z,96.55
2018-03-08T05:59:04.105Z,96.58
2018-03-08T06:00:04.093Z,96.66
2018-03-08T06:01:04.055Z,96.72
2018-03-08T06:02:04.011Z,96.74
2018-03-08T06:03:04.019Z,96.83
2018-03-08T06:04:04.072Z,96.77
2018-03-08T06:05:04.118Z,96.77
2018-03-08T06:06:04.081Z,96.64
2018-03-08T06:07:04.160Z,96.61
2018-03-08T06:08:04.091Z,96.69
2018-03-08T06:09:04.159Z,96.72
2018-03-08T06:10:04.044Z,96.85
2018-03-08T06:11:04.117Z,97.07
2018-03-08T06:12:04.026Z,97.07
2018-03-08T06:13:04.047Z,97.34
2018-03-08T06:14:04.122Z,97.39
2018-03-08T06:15:04.056Z,97.55
2018-03-08T06:16:04.125Z,97.69
2018-03-08T06:17:04.141Z,97.77
2018-03-08T06:18:04.130Z,97.28
2018-03-08T06:19:04.131Z,96.88
2018-03-08T06:20:04.115Z,96.64
2018-03-08T06:21:04.132Z,96.45
2018-03-08T06:22:04.132Z,96.36
2018-03-08T06:23:04.123Z,96.04
2018-03-08T06:24:04.059Z,95.58
2018-03-08T06:25:04.130Z,95.18
2018-03-08T06:26:04.132Z,94.72
2018-03-08T06:27:04.092Z,94.45
2018-03-08T06:28:04.090Z,94.21
2018-03-08T06:29:04.133Z,94.21
2018-03-08T06:30:04.061Z,93.85
2018-03-08T06:31:04.061Z,93.67
2018-03-08T06:32:04.135Z,93.48
2018-03-08T06:33:04.139Z,93.48
2018-03-08T06:34:04.067Z,93.51
2018-03-08T06:35:04.155Z,93.45
2018-03-08T06:36:04.068Z,93.62
2018-03-08T06:37:04.066Z,93.75
2018-03-08T06:38:04.141Z,93.81
2018-03-08T06:39:04.094Z,93.89
2018-03-08T06:40:04.139Z,94.04
2018-03-08T06:41:04.071Z,94.21
2018-03-08T06:42:04.142Z,94.10
2018-03-08T06:43:04.074Z,93.64
2018-03-08T06:44:04.096Z,93.13
2018-03-08T06:45:04.081Z,92.84
2018-03-08T06:46:04.164Z,92.62
2018-03-08T06:47:04.139Z,92.62
2018-03-08T06:48:04.140Z,92.27
2018-03-08T06:49:04.171Z,91.79
2018-03-08T06:50:04.162Z,91.55
2018-03-08T06:51:04.136Z,91.52
2018-03-08T06:52:04.098Z,91.49
2018-03-08T06:53:04.185Z,91.22
2018-03-08T06:54:04.105Z,91.14
2018-03-08T06:55:04.053Z,91.17
2018-03-08T06:56:04.147Z,91.07
2018-03-08T06:57:04.048Z,90.47
2018-03-08T06:58:04.152Z,90.47
2018-03-08T06:59:04.146Z,90.31
2018-03-08T07:00:04.112Z,89.51
2018-03-08T07:01:04.068Z,88.71
2018-03-08T07:02:04.102Z,88.31
2018-03-08T07:03:04.190Z,87.85
2018-03-08T07:04:04.087Z,87.77
2018-03-08T07:05:04.095Z,87.90
2018-03-08T07:06:04.086Z,87.96
2018-03-08T07:07:04.155Z,87.88
2018-03-08T07:08:04.099Z,87.90
2018-03-08T07:09:04.091Z,87.82
2018-03-08T07:10:04.157Z,87.93
2018-03-08T07:11:04.116Z,87.69
2018-03-08T07:12:04.223Z,87.51
2018-03-08T07:13:04.158Z,87.18
2018-03-08T07:14:04.210Z,87.48
2018-03-08T07:15:04.196Z,87.05
2018-03-08T07:16:04.070Z,86.60
2018-03-08T07:17:04.169Z,86.57
2018-03-08T07:18:04.137Z,86.57
2018-03-08T07:19:04.131Z,86.01
2018-03-08T07:20:04.209Z,86.09
2018-03-08T07:21:04.161Z,85.99
2018-03-08T07:22:04.186Z,86.07
2018-03-08T07:23:04.201Z,86.30
2018-03-08T07:24:04.141Z,86.04
2018-03-08T07:25:04.097Z,85.72
2018-03-08T07:26:04.133Z,85.30
2018-03-08T07:27:04.171Z,85.72
2018-03-08T07:28:04.167Z,86.30
2018-03-08T07:29:04.228Z,85.96
2018-03-08T07:30:04.172Z,86.09
2018-03-08T07:31:04.170Z,85.88
2018-03-08T07:32:04.100Z,85.80
2018-03-08T07:33:04.104Z,85.56
2018-03-08T07:34:04.169Z,85.32
2018-03-08T07:35:04.129Z,85.46
2018-03-08T07:36:04.212Z,85.21
2018-03-08T07:37:04.132Z,85.00
2018-03-08T07:38:04.142Z,84.81
2018-03-08T07:39:04.144Z,84.44
2018-03-08T07:40:04.073Z,84.55
2018-03-08T07:41:04.208Z,83.91
2018-03-08T07:42:04.074Z,83.51
2018-03-08T07:43:04.175Z,83.70
2018-03-08T07:44:04.173Z,83.20
2018-03-08T07:45:04.118Z,83.30
2018-03-08T07:46:04.178Z,83.06
2018-03-08T07:47:04.181Z,83.36
2018-03-08T07:48:04.177Z,82.61
2018-03-08T07:49:04.133Z,81.95
2018-03-08T07:50:04.113Z,81.37
2018-03-08T07:51:04.117Z,81.00
2018-03-08T07:52:04.144Z,80.79
2018-03-08T07:53:04.183Z,80.94
2018-03-08T07:54:04.114Z,81.48
2018-03-08T07:55:04.116Z,81.84
2018-03-08T07:56:04.187Z,80.68
2018-03-08T07:57:04.401Z,80.84
2018-03-08T07:58:04.187Z,81.34
2018-03-08T07:59:04.115Z,80.89
2018-03-08T08:00:04.186Z,79.52
2018-03-08T08:01:04.119Z,79.31
2018-03-08T08:02:04.193Z,79.20
2018-03-08T08:03:04.116Z,77.49
2018-03-08T08:04:04.185Z,77.17
2018-03-08T08:05:04.122Z,76.36
2018-03-08T08:06:04.185Z,76.34
2018-03-08T08:07:04.194Z,75.68
2018-03-08T08:08:04.187Z,75.15
2018-03-08T08:09:04.126Z,74.84
2018-03-08T08:10:04.188Z,74.68
2018-03-08T08:11:04.126Z,74.87
2018-03-08T08:12:04.229Z,74.24
2018-03-08T08:13:04.122Z,73.48
2018-03-08T08:14:04.090Z,73.53
2018-03-08T08:15:04.166Z,73.61
2018-03-08T08:16:04.196Z,73.19
2018-03-08T08:17:04.121Z,73.08
2018-03-08T08:18:04.150Z,73.77
2018-03-08T08:19:04.165Z,73.69
2018-03-08T08:20:04.196Z,73.08
2018-03-08T08:21:04.258Z,72.14
2018-03-08T08:22:04.161Z,72.14
2018-03-08T08:23:04.095Z,71.34
2018-03-08T08:24:04.224Z,71.05
2018-03-08T08:25:04.132Z,71.07
2018-03-08T08:26:04.137Z,71.91
2018-03-08T08:27:04.219Z,70.45
2018-03-08T08:28:04.199Z,70.60
2018-03-08T08:29:04.130Z,70.87
2018-03-08T08:30:04.133Z,70.29
2018-03-08T08:31:04.131Z,70.11
2018-03-08T08:32:04.139Z,69.93
2018-03-08T08:33:04.205Z,71.05
2018-03-08T08:34:04.202Z,68.89
2018-03-08T08:35:04.164Z,68.87
2018-03-08T08:36:04.225Z,70.19
2018-03-08T08:37:04.236Z,70.09
2018-03-08T08:38:04.224Z,69.07
2018-03-08T08:39:04.239Z,69.36
2018-03-08T08:40:04.206Z,69.41
2018-03-08T08:41:04.208Z,68.79
2018-03-08T08:42:04.165Z,69.67
2018-03-08T08:43:04.209Z,68.89
2018-03-08T08:44:04.209Z,68.94
2018-03-08T08:45:04.144Z,70.19
2018-03-08T08:46:04.142Z,69.20
2018-03-08T08:47:04.145Z,70.40
2018-03-08T08:48:04.218Z,68.84
2018-03-08T08:49:04.142Z,68.71
2018-03-08T08:50:04.225Z,68.11
2018-03-08T08:51:04.219Z,67.85
2018-03-08T08:52:04.146Z,67.46
2018-03-08T08:53:04.216Z,67.54
2018-03-08T08:54:04.223Z,67.64
2018-03-08T08:55:04.214Z,68.43
2018-03-08T08:56:04.216Z,68.29
2018-03-08T08:57:04.214Z,67.57
2018-03-08T08:58:04.138Z,67.70
2018-03-08T08:59:04.145Z,68.19
2018-03-08T09:00:04.219Z,67.20
2018-03-08T09:01:04.142Z,67.77
2018-03-08T09:02:04.251Z,67.91
2018-03-08T09:03:04.158Z,67.28
2018-03-08T09:04:04.222Z,66.81
2018-03-08T09:05:04.250Z,67.57
2018-03-08T09:06:04.160Z,66.64
2018-03-08T09:07:04.225Z,67.13
2018-03-08T09:08:04.157Z,67.23
2018-03-08T09:09:04.232Z,66.22
2018-03-08T09:10:04.159Z,66.17
2018-03-08T09:11:04.237Z,66.48
2018-03-08T09:12:04.185Z,65.99
2018-03-08T09:13:04.233Z,66.48
2018-03-08T09:14:04.160Z,65.91
2018-03-08T09:15:04.233Z,66.45
2018-03-08T09:16:04.159Z,66.74
2018-03-08T09:17:04.163Z,66.09
2018-03-08T09:18:04.231Z,66.66
2018-03-08T09:19:04.164Z,67.41
2018-03-08T09:20:04.236Z,67.02
2018-03-08T09:21:04.221Z,66.79
2018-03-08T09:22:04.233Z,66.04
2018-03-08T09:23:04.231Z,67.23
2018-03-08T09:24:04.165Z,68.16
2018-03-08T09:25:04.258Z,68.45
2018-03-08T09:26:04.258Z,68.84
2018-03-08T09:27:04.103Z,68.14
2018-03-08T09:28:04.237Z,67.18
2018-03-08T09:29:04.121Z,67.18
2018-03-08T09:30:04.142Z,66.79
2018-03-08T09:31:04.234Z,67.16
2018-03-08T09:32:04.144Z,67.25
2018-03-08T09:33:04.146Z,67.16
2018-03-08T09:34:04.220Z,67.28
2018-03-08T09:35:04.221Z,66.40
2018-03-08T09:36:04.282Z,67.18
2018-03-08T09:37:04.183Z,67.25
2018-03-08T09:38:04.244Z,67.57
2018-03-08T09:39:04.276Z,66.06
2018-03-08T09:40:04.242Z,66.20
2018-03-08T09:41:04.218Z,66.66
2018-03-08T09:42:04.227Z,66.48
2018-03-08T09:43:04.202Z,66.20
2018-03-08T09:44:04.251Z,66.79
2018-03-08T09:45:04.277Z,68.04
2018-03-08T09:46:04.247Z,66.89
2018-03-08T09:47:04.195Z,66.95
2018-03-08T09:48:04.238Z,68.19
2018-03-08T09:49:04.246Z,67.70
2018-03-08T09:50:04.151Z,67.62
2018-03-08T09:51:04.231Z,68.47
2018-03-08T09:52:04.130Z,68.94
2018-03-08T09:53:04.254Z,68.50
2018-03-08T09:54:04.132Z,65.78
2018-03-08T09:55:04.251Z,67.57
2018-03-08T09:56:04.257Z,68.40
2018-03-08T09:57:04.198Z,68.40
2018-03-08T09:58:04.255Z,66.81
2018-03-08T09:59:04.316Z,65.53
2018-03-08T10:00:04.183Z,65.55
2018-03-08T10:01:04.191Z,64.95
2018-03-08T10:02:04.152Z,64.75
2018-03-08T10:03:04.201Z,65.39
2018-03-08T10:04:04.194Z,64.29
2018-03-08T10:05:04.196Z,63.69
2018-03-08T10:06:04.251Z,64.34
2018-03-08T10:07:04.257Z,63.51
2018-03-08T10:08:04.234Z,63.69
2018-03-08T10:09:04.168Z,63.90
2018-03-08T10:10:04.295Z,62.94
2018-03-08T10:11:04.288Z,64.36
2018-03-08T10:12:04.229Z,62.40
2018-03-08T10:13:04.181Z,62.69
2018-03-08T10:14:04.319Z,61.50
2018-03-08T10:15:04.170Z,62.66
2018-03-08T10:16:04.152Z,63.43
2018-03-08T10:17:04.197Z,63.41
2018-03-08T10:18:04.267Z,63.85
2018-03-08T10:19:04.225Z,63.30
2018-03-08T10:20:04.280Z,64.05
2018-03-08T10:21:04.203Z,64.62
2018-03-08T10:22:04.262Z,64.00
2018-03-08T10:23:04.217Z,63.13
2018-03-08T10:24:04.266Z,64.00
2018-03-08T10:25:04.207Z,63.18
2018-03-08T10:26:04.221Z,61.86
2018-03-08T10:27:04.247Z,62.97
2018-03-08T10:28:04.293Z,62.22
2018-03-08T10:29:04.298Z,62.10
2018-03-08T10:30:04.308Z,61.30
2018-03-08T10:31:04.252Z,60.76
2018-03-08T10:32:04.249Z,61.35
2018-03-08T10:33:04.275Z,62.40
2018-03-08T10:34:04.315Z,62.74
2018-03-08T10:35:04.346Z,62.79
2018-03-08T10:36:04.235Z,62.18
2018-03-08T10:37:04.282Z,62.35
2018-03-08T10:38:04.248Z,63.46
2018-03-08T10:40:04.280Z,62.74
2018-03-08T10:41:04.328Z,61.12
2018-03-08T10:42:04.311Z,60.94
2018-03-08T10:43:04.180Z,61.56
2018-03-08T10:44:04.262Z,61.30
2018-03-08T10:45:04.286Z,59.86
2018-03-08T10:46:04.190Z,60.50
2018-03-08T10:47:04.300Z,60.20
2018-03-08T10:48:04.189Z,60.76
2018-03-08T10:49:04.264Z,60.48
2018-03-08T10:50:04.187Z,62.69
2018-03-08T10:51:04.258Z,61.17
2018-03-08T10:52:04.322Z,60.81
2018-03-08T10:53:04.315Z,60.89
2018-03-08T10:54:04.188Z,61.74
2018-03-08T10:55:04.324Z,62.61
2018-03-08T10:56:04.222Z,62.10
2018-03-08T10:57:04.221Z,62.02
2018-03-08T10:58:04.218Z,62.10
2018-03-08T10:59:04.228Z,61.46
2018-03-08T11:00:04.227Z,62.10
2018-03-08T11:01:04.229Z,62.48
2018-03-08T11:02:04.297Z,61.33
2018-03-08T11:03:04.304Z,61.43
2018-03-08T11:04:04.260Z,61.14
2018-03-08T11:05:04.292Z,61.06
2018-03-08T11:06:04.321Z,60.45
2018-03-08T11:07:04.382Z,60.73
2018-03-08T11:08:04.300Z,61.12
2018-03-08T11:09:04.277Z,61.50
2018-03-08T11:10:04.334Z,61.61
2018-03-08T11:11:04.209Z,61.69
2018-03-08T11:12:04.297Z,60.71
2018-03-08T11:13:04.273Z,61.12
2018-03-08T11:14:04.203Z,60.76
2018-03-08T11:15:04.321Z,62.46
2018-03-08T11:16:04.256Z,60.35
2018-03-08T11:17:04.210Z,60.68
2018-03-08T11:18:04.239Z,61.14
2018-03-08T11:19:04.300Z,61.56
2018-03-08T11:20:04.375Z,61.63
2018-03-08T11:21:04.299Z,61.48
2018-03-08T11:22:04.297Z,61.22
2018-03-08T11:23:04.271Z,61.02
2018-03-08T11:24:04.270Z,60.78
2018-03-08T11:25:04.307Z,60.50
2018-03-08T11:26:04.243Z,60.58
2018-03-08T11:27:04.313Z,60.94
2018-03-08T11:28:04.243Z,61.53
2018-03-08T11:29:04.313Z,61.97
2018-03-08T11:30:04.309Z,61.46
2018-03-08T11:31:04.246Z,60.48
2018-03-08T11:32:04.312Z,61.86
2018-03-08T11:33:04.245Z,62.22
2018-03-08T11:34:04.311Z,61.25
2018-03-08T11:35:04.250Z,61.46
2018-03-08T11:36:08.739Z,61.94
2018-03-08T11:37:04.246Z,62.94
2018-03-08T11:38:04.321Z,60.33
2018-03-08T11:39:05.284Z,61.17
2018-03-08T11:40:04.314Z,61.14
2018-03-08T11:41:04.248Z,58.61
2018-03-08T11:42:04.202Z,60.33
2018-03-08T11:43:04.249Z,60.53
2018-03-08T11:44:04.320Z,58.76
2018-03-08T11:45:04.319Z,58.40
2018-03-08T11:46:04.318Z,55.91
2018-03-08T11:47:04.306Z,55.17
2018-03-08T11:48:04.308Z,53.42
2018-03-08T11:49:04.251Z,54.86
2018-03-08T11:50:04.228Z,56.59
2018-03-08T11:51:04.206Z,56.33
2018-03-08T11:52:04.211Z,57.26
2018-03-08T11:53:04.253Z,58.84
2018-03-08T11:54:04.209Z,58.74
2018-03-08T11:55:04.312Z,58.33
2018-03-08T11:56:04.316Z,58.20
2018-03-08T11:57:04.279Z,56.36
2018-03-08T11:58:04.184Z,58.59
2018-03-08T11:59:04.280Z,57.08
2018-03-08T12:00:04.249Z,58.25
2018-03-08T12:01:04.202Z,56.46
2018-03-08T12:02:04.276Z,56.80
2018-03-08T12:03:04.280Z,55.67
2018-03-08T12:04:04.191Z,54.94
2018-03-08T12:05:04.293Z,56.29
2018-03-08T12:06:04.251Z,54.71
2018-03-08T12:07:04.353Z,56.08
2018-03-08T12:08:04.369Z,56.93
2018-03-08T12:09:04.312Z,55.93
2018-03-08T12:10:04.259Z,56.57
2018-03-08T12:11:04.330Z,56.57
2018-03-08T12:12:04.334Z,56.57
2018-03-08T12:13:04.359Z,56.82
2018-03-08T12:14:04.333Z,56.11
2018-03-08T12:15:04.379Z,56.61
2018-03-08T12:16:04.269Z,57.28
2018-03-08T12:17:04.381Z,57.92
2018-03-08T12:18:04.275Z,57.61
2018-03-08T12:19:04.271Z,58.48
2018-03-08T12:20:04.343Z,58.81
2018-03-08T12:21:04.272Z,58.30
2018-03-08T12:22:04.344Z,59.65
2018-03-08T12:23:04.276Z,59.81
2018-03-08T12:24:04.341Z,60.12
2018-03-08T12:25:04.276Z,59.76
2018-03-08T12:26:04.275Z,60.09
2018-03-08T12:27:04.343Z,60.84
2018-03-08T12:28:04.350Z,61.17
2018-03-08T12:29:04.349Z,59.97
2018-03-08T12:30:04.279Z,60.73
2018-03-08T12:31:04.347Z,59.84
2018-03-08T12:32:04.279Z,58.71
2018-03-08T12:33:04.349Z,58.17
2018-03-08T12:34:04.281Z,58.79
2018-03-08T12:35:04.354Z,60.73
2018-03-08T12:37:04.331Z,60.55
2018-03-08T12:38:04.250Z,60.48
2018-03-08T12:39:04.384Z,60.61
2018-03-08T12:40:04.387Z,60.81
2018-03-08T12:41:04.356Z,60.43
2018-03-08T12:42:04.316Z,60.71
2018-03-08T12:43:04.384Z,60.37
2018-03-08T12:44:04.347Z,60.35
2018-03-08T12:45:04.391Z,60.63
2018-03-08T12:46:04.264Z,60.71
2018-03-08T12:47:04.263Z,61.71
2018-03-08T12:48:04.336Z,61.25
2018-03-08T12:49:04.400Z,61.38
2018-03-08T12:50:04.375Z,61.33
2018-03-08T12:51:04.376Z,61.63
2018-03-08T12:52:04.379Z,61.46
2018-03-08T12:53:04.319Z,62.38
2018-03-08T12:54:04.388Z,62.14